createdAt,value
2023-01-06T00:00:13.008Z,3.50
2023-01-06T00:05:23.021Z,3.28
2023-01-06T00:07:52.692Z,4.10
2023-01-06T00:10:23.361Z,3.10
2023-01-06T00:12:56.798Z,3.15
2023-01-06T00:15:30.760Z,3.38
2023-01-06T00:18:03.608Z,3.08
2023-01-06T00:20:42.706Z,2.60
2023-01-06T00:23:12.599Z,3.10
2023-01-06T00:25:56.771Z,2.88
2023-01-06T00:28:46.928Z,2.30
2023-01-06T00:31:17.804Z,2.30
2023-01-06T00:33:48.253Z,4.43
2023-01-06T00:36:21.984Z,3.03
2023-01-06T00:38:59.242Z,3.92
2023-01-06T00:41:49.826Z,2.10
2023-01-06T00:44:33.080Z,2.40
2023-01-06T00:47:09.545Z,2.15
2023-01-06T00:49:45.698Z,3.53
2023-01-06T00:52:17.767Z,3.03
2023-01-06T00:54:46.709Z,2.80
2023-01-06T00:57:21.021Z,2.83
2023-01-06T00:59:49.675Z,5.68
2023-01-06T01:02:19.081Z,2.95
2023-01-06T01:04:48.533Z,2.10
2023-01-06T01:07:17.223Z,3.67
2023-01-06T01:09:46.165Z,2.13
2023-01-06T01:12:14.596Z,3.70
2023-01-06T01:14:48.432Z,3.80
2023-01-06T01:17:19.793Z,4.10
2023-01-06T01:19:50.101Z,4.05
2023-01-06T01:22:19.215Z,2.83
2023-01-06T01:24:48.154Z,2.55
2023-01-06T01:27:16.791Z,3.50
2023-01-06T01:29:47.272Z,3.83
2023-01-06T01:32:16.265Z,3.70
2023-01-06T01:34:44.624Z,2.28
2023-01-06T01:37:13.206Z,3.20
2023-01-06T01:39:42.074Z,3.00
2023-01-06T01:42:15.788Z,4.93
2023-01-06T01:45:02.338Z,3.97
2023-01-06T01:47:35.466Z,3.55
2023-01-06T01:50:12.505Z,3.42
2023-01-06T01:52:41.788Z,3.65
2023-01-06T01:55:12.996Z,4.35
2023-01-06T01:57:46.344Z,4.82
2023-01-06T02:00:17.561Z,2.88
2023-01-06T02:02:46.510Z,4.05
2023-01-06T02:05:17.119Z,3.03
2023-01-06T02:07:46.187Z,2.70
2023-01-06T02:10:16.058Z,3.42
2023-01-06T02:12:47.445Z,3.72
2023-01-06T02:15:22.047Z,3.65
2023-01-06T02:18:05.992Z,3.83
2023-01-06T02:20:59.828Z,3.50
2023-01-06T02:23:48.111Z,4.55
2023-01-06T02:26:44.852Z,5.32
2023-01-06T02:29:27.399Z,3.63
2023-01-06T02:32:04.207Z,3.53
2023-01-06T02:34:42.115Z,2.42
2023-01-06T02:37:16.875Z,4.60
2023-01-06T02:39:50.274Z,4.40
2023-01-06T02:42:22.093Z,5.50
2023-01-06T02:44:59.877Z,3.75
2023-01-06T02:47:35.933Z,2.80
2023-01-06T02:50:11.482Z,2.15
2023-01-06T02:52:44.791Z,2.88
2023-01-06T02:55:17.951Z,3.60
2023-01-06T02:57:50.964Z,1.60
2023-01-06T03:00:30.795Z,3.72
2023-01-06T03:03:05.215Z,3.35
2023-01-06T03:05:39.517Z,2.35
2023-01-06T03:08:13.180Z,2.83
2023-01-06T03:10:45.761Z,2.65
2023-01-06T03:13:16.439Z,3.38
2023-01-06T03:15:45.735Z,1.98
2023-01-06T03:18:16.371Z,2.67
2023-01-06T03:20:44.941Z,2.17
2023-01-06T03:23:15.062Z,2.47
2023-01-06T03:25:43.457Z,3.60
2023-01-06T03:28:13.157Z,2.58
2023-01-06T03:30:45.803Z,2.15
2023-01-06T03:33:20.691Z,2.78
2023-01-06T03:35:52.865Z,2.25
2023-01-06T03:38:29.487Z,2.10
2023-01-06T03:41:02.268Z,2.78
2023-01-06T03:43:37.425Z,2.50
2023-01-06T03:46:13.606Z,1.65
2023-01-06T03:48:52.560Z,2.85
2023-01-06T03:51:32.219Z,1.65
2023-01-06T03:54:03.318Z,1.83
2023-01-06T03:56:37.026Z,3.40
2023-01-06T03:59:07.754Z,3.38
2023-01-06T04:01:36.871Z,1.58
2023-01-06T04:04:07.646Z,3.13
2023-01-06T04:06:39.192Z,3.00
2023-01-06T04:09:07.646Z,2.67
2023-01-06T04:11:53.471Z,4.35
2023-01-06T04:14:23.611Z,2.53
2023-01-06T04:16:55.197Z,2.65
2023-01-06T04:19:26.389Z,3.15
2023-01-06T04:21:55.576Z,2.13
2023-01-06T04:24:24.568Z,2.65
2023-01-06T04:26:53.496Z,3.65
2023-01-06T04:29:22.531Z,2.67
2023-01-06T04:31:51.441Z,3.85
2023-01-06T04:34:21.117Z,2.65
2023-01-06T04:36:51.704Z,2.25
2023-01-06T04:39:20.732Z,2.75
2023-01-06T04:41:49.334Z,2.67
2023-01-06T04:44:19.692Z,2.00
2023-01-06T04:46:48.167Z,2.55
2023-01-06T04:49:17.744Z,2.30
2023-01-06T04:51:47.038Z,3.03
2023-01-06T04:54:20.465Z,2.95
2023-01-06T04:56:49.223Z,2.85
2023-01-06T04:59:17.723Z,3.75
2023-01-06T05:01:46.763Z,2.15
2023-01-06T05:04:15.726Z,2.92
2023-01-06T05:06:45.144Z,2.55
2023-01-06T05:09:14.879Z,4.00
2023-01-06T05:11:46.508Z,2.67
2023-01-06T05:14:18.952Z,2.47
2023-01-06T05:16:49.451Z,1.83
2023-01-06T05:19:17.859Z,2.55
2023-01-06T05:21:46.697Z,2.03
2023-01-06T05:24:16.442Z,2.80
2023-01-06T05:26:46.968Z,2.70
2023-01-06T05:29:17.397Z,3.20
2023-01-06T05:31:46.446Z,2.53
2023-01-06T05:34:14.889Z,3.30
2023-01-06T05:36:44.585Z,2.78
2023-01-06T05:39:14.257Z,2.80
2023-01-06T05:41:43.333Z,3.10
2023-01-06T05:44:14.097Z,4.40
2023-01-06T05:46:42.539Z,1.95
2023-01-06T05:49:11.169Z,3.45
2023-01-06T05:51:40.434Z,3.75
2023-01-06T05:54:09.741Z,2.80
2023-01-06T05:56:39.152Z,5.10
2023-01-06T05:59:08.292Z,4.55
2023-01-06T06:01:38.944Z,2.55
2023-01-06T06:04:10.360Z,4.10
2023-01-06T06:06:39.165Z,6.68
2023-01-06T06:09:08.440Z,7.10
2023-01-06T06:11:38.485Z,4.82
2023-01-06T06:14:10.401Z,4.50
2023-01-06T06:16:41.234Z,2.33
2023-01-06T06:19:13.140Z,2.95
2023-01-06T06:21:45.072Z,3.40
2023-01-06T06:24:14.662Z,2.20
2023-01-06T06:26:45.830Z,2.95
2023-01-06T06:29:14.549Z,3.10
2023-01-06T06:31:45.204Z,3.60
2023-01-06T06:34:14.815Z,3.90
2023-01-06T06:36:44.385Z,2.70
2023-01-06T06:39:12.681Z,2.95
2023-01-06T06:41:41.451Z,4.15
2023-01-06T06:44:11.045Z,2.35
2023-01-06T06:46:45.455Z,5.18
2023-01-06T06:49:20.043Z,3.97
2023-01-06T06:52:00.226Z,2.53
2023-01-06T06:54:29.283Z,3.35
2023-01-06T06:56:58.169Z,3.13
2023-01-06T06:59:26.802Z,2.67
2023-01-06T07:01:55.781Z,3.35
2023-01-06T07:04:26.295Z,3.08
2023-01-06T07:07:01.036Z,2.70
2023-01-06T07:09:29.936Z,2.72
2023-01-06T07:11:59.471Z,3.50
2023-01-06T07:14:28.360Z,3.95
2023-01-06T07:16:57.946Z,3.63
2023-01-06T07:19:29.005Z,3.10
2023-01-06T07:21:58.197Z,2.80
2023-01-06T07:24:30.327Z,3.35
2023-01-06T07:27:00.248Z,3.17
2023-01-06T07:29:29.403Z,2.25
2023-01-06T07:32:00.654Z,4.80
2023-01-06T07:34:34.661Z,1.92
2023-01-06T07:37:03.143Z,2.75
2023-01-06T07:39:33.569Z,4.38
2023-01-06T07:42:02.298Z,2.55
2023-01-06T07:44:31.419Z,4.32
2023-01-06T07:46:59.863Z,3.08
2023-01-06T07:49:29.433Z,3.63
2023-01-06T07:52:01.278Z,3.08
2023-01-06T07:54:30.439Z,2.70
2023-01-06T07:56:59.138Z,2.65
2023-01-06T07:59:28.464Z,4.13
2023-01-06T08:01:57.565Z,6.50
2023-01-06T08:04:26.570Z,4.75
2023-01-06T08:06:55.221Z,2.40
2023-01-06T08:09:25.996Z,7.43
2023-01-06T08:11:57.310Z,10.57
2023-01-06T08:14:25.828Z,6.25
2023-01-06T08:16:54.815Z,3.67
2023-01-06T08:19:24.213Z,3.67
2023-01-06T08:21:54.136Z,3.30
2023-01-06T08:24:23.277Z,3.03
2023-01-06T08:26:54.256Z,3.00
2023-01-06T08:29:22.891Z,3.05
2023-01-06T08:32:09.926Z,3.65
2023-01-06T08:34:39.712Z,3.83
2023-01-06T08:37:08.878Z,3.88
2023-01-06T08:39:38.368Z,5.30
2023-01-06T08:42:10.067Z,4.43
2023-01-06T08:44:42.030Z,5.25
2023-01-06T08:47:10.579Z,6.13
2023-01-06T08:49:42.405Z,4.93
2023-01-06T08:52:11.533Z,5.10
2023-01-06T08:54:44.027Z,5.70
2023-01-06T08:57:17.044Z,4.13
2023-01-06T08:59:48.659Z,3.67
2023-01-06T09:02:17.934Z,4.18
2023-01-06T09:04:46.499Z,3.08
2023-01-06T09:07:15.073Z,2.72
2023-01-06T09:09:47.073Z,5.15
2023-01-06T09:12:17.841Z,3.00
2023-01-06T09:14:46.386Z,5.18
2023-01-06T09:17:21.075Z,2.55
2023-01-06T09:19:52.203Z,3.13
2023-01-06T09:22:21.076Z,4.22
2023-01-06T09:24:50.034Z,4.03
2023-01-06T09:27:24.957Z,5.53
2023-01-06T09:29:53.647Z,3.80
2023-01-06T09:32:23.580Z,4.35
2023-01-06T09:34:53.030Z,5.05
2023-01-06T09:37:22.157Z,5.82
2023-01-06T09:39:53.943Z,3.58
2023-01-06T09:42:35.008Z,4.65
2023-01-06T09:45:05.750Z,4.28
2023-01-06T09:47:40.388Z,4.50
2023-01-06T09:50:12.007Z,5.03
2023-01-06T09:52:44.104Z,4.60
2023-01-06T09:55:23.665Z,3.42
2023-01-06T09:57:58.897Z,3.97
2023-01-06T10:00:33.947Z,4.70
2023-01-06T10:03:06.507Z,4.40
2023-01-06T10:05:40.238Z,3.95
2023-01-06T10:08:12.323Z,5.65
2023-01-06T10:10:46.601Z,3.95
2023-01-06T10:13:28.239Z,3.63
2023-01-06T10:16:00.246Z,3.53
2023-01-06T10:18:34.710Z,4.68
2023-01-06T10:21:07.165Z,5.28
2023-01-06T10:23:45.301Z,3.95
2023-01-06T10:26:14.959Z,4.63
2023-01-06T10:28:46.026Z,4.35
2023-01-06T10:31:19.690Z,5.00
2023-01-06T10:33:50.707Z,5.05
2023-01-06T10:36:23.542Z,4.45
2023-01-06T10:38:54.005Z,4.72
2023-01-06T10:41:27.568Z,4.07
2023-01-06T10:43:59.403Z,5.55
2023-01-06T10:46:31.285Z,4.00
2023-01-06T10:49:06.815Z,3.67
2023-01-06T10:51:38.505Z,4.82
2023-01-06T10:54:10.198Z,4.65
2023-01-06T10:56:40.486Z,3.30
2023-01-06T10:59:11.392Z,3.83
2023-01-06T11:01:49.594Z,4.05
2023-01-06T11:04:21.381Z,3.72
2023-01-06T11:06:51.887Z,2.83
2023-01-06T11:09:26.437Z,3.70
2023-01-06T11:12:00.488Z,4.90
2023-01-06T11:14:35.342Z,4.03
2023-01-06T11:17:05.451Z,3.28
2023-01-06T11:19:36.855Z,5.07
2023-01-06T11:22:06.071Z,4.55
2023-01-06T11:24:35.974Z,4.35
2023-01-06T11:27:18.275Z,5.50
2023-01-06T11:29:51.445Z,7.20
2023-01-06T11:32:22.098Z,3.97
2023-01-06T11:34:54.280Z,5.22
2023-01-06T11:37:31.333Z,4.53
2023-01-06T11:40:10.382Z,4.00
2023-01-06T11:45:28.035Z,3.30
2023-01-06T11:47:58.928Z,4.60
2023-01-06T11:50:28.182Z,4.72
2023-01-06T11:53:01.342Z,5.00
2023-01-06T11:55:30.930Z,5.43
2023-01-06T11:58:03.613Z,4.05
2023-01-06T12:00:36.231Z,4.55
2023-01-06T12:03:15.891Z,4.97
2023-01-06T12:05:47.967Z,4.70
2023-01-06T12:08:18.949Z,5.35
2023-01-06T12:10:49.794Z,4.72
2023-01-06T12:13:18.968Z,5.97
2023-01-06T12:15:55.026Z,5.70
2023-01-06T12:18:29.150Z,5.30
2023-01-06T12:20:59.861Z,5.45
2023-01-06T12:23:30.708Z,4.93
2023-01-06T12:26:00.637Z,5.93
2023-01-06T12:28:33.100Z,5.88
2023-01-06T12:31:05.522Z,5.28
2023-01-06T12:33:44.799Z,5.78
2023-01-06T12:36:20.776Z,4.67
2023-01-06T12:38:51.975Z,5.10
2023-01-06T12:41:27.619Z,4.85
2023-01-06T12:43:58.766Z,4.78
2023-01-06T12:46:30.876Z,5.65
2023-01-06T12:49:02.269Z,5.53
2023-01-06T12:51:34.857Z,5.95
2023-01-06T12:54:06.890Z,5.57
2023-01-06T12:56:47.022Z,5.53
2023-01-06T12:59:20.182Z,5.43
2023-01-06T13:01:52.385Z,6.40
2023-01-06T13:04:41.790Z,5.15
2023-01-06T13:07:25.317Z,4.97
2023-01-06T13:10:02.069Z,7.22
2023-01-06T13:12:40.505Z,5.75
2023-01-06T13:15:15.741Z,5.22
2023-01-06T13:17:47.515Z,4.55
2023-01-06T13:20:22.558Z,5.82
2023-01-06T13:22:58.266Z,7.35
2023-01-06T13:25:51.260Z,5.95
2023-01-06T13:28:27.676Z,6.22
2023-01-06T13:31:12.911Z,9.10
2023-01-06T13:33:55.131Z,8.55
2023-01-06T13:39:45.496Z,5.35
2023-01-06T13:42:26.155Z,6.70
2023-01-06T13:45:13.472Z,5.10
2023-01-06T13:47:56.586Z,4.75
2023-01-06T13:50:36.970Z,6.72
2023-01-06T13:53:19.244Z,5.50
2023-01-06T13:56:10.447Z,7.65
2023-01-06T13:58:41.612Z,4.72
2023-01-06T14:01:11.932Z,6.18
2023-01-06T14:03:41.730Z,9.73
2023-01-06T14:06:13.178Z,7.28
2023-01-06T14:08:49.119Z,7.55
2023-01-06T14:11:28.230Z,7.45
2023-01-06T14:13:59.720Z,7.15
2023-01-06T14:16:50.034Z,10.00
2023-01-06T14:19:20.137Z,7.13
2023-01-06T14:21:53.634Z,5.95
2023-01-06T14:24:28.674Z,8.05
2023-01-06T14:27:01.371Z,6.00
2023-01-06T14:29:49.621Z,5.88
2023-01-06T14:32:53.315Z,7.38
2023-01-06T14:35:28.521Z,5.10
2023-01-06T14:37:59.582Z,7.40
2023-01-06T14:40:29.712Z,6.43
2023-01-06T14:42:59.796Z,7.22
2023-01-06T14:45:30.472Z,8.68
2023-01-06T14:48:02.295Z,9.77
2023-01-06T14:50:46.031Z,7.32
2023-01-06T14:53:20.645Z,7.95
2023-01-06T14:55:54.160Z,9.68
2023-01-06T14:58:29.395Z,13.48
2023-01-06T15:00:58.605Z,11.00
2023-01-06T15:03:28.760Z,11.13
2023-01-06T15:06:24.881Z,9.23
2023-01-06T15:08:56.091Z,13.18
2023-01-06T15:11:28.797Z,9.32
2023-01-06T15:13:57.861Z,10.45
2023-01-06T15:16:33.723Z,9.00
2023-01-06T15:19:03.395Z,10.18
2023-01-06T15:21:39.685Z,9.55
2023-01-06T15:24:15.933Z,8.48
2023-01-06T15:26:44.687Z,8.32
2023-01-06T15:29:16.375Z,8.57
2023-01-06T15:31:45.646Z,10.38
2023-01-06T15:34:16.751Z,10.13
2023-01-06T15:36:48.774Z,10.82
2023-01-06T15:39:21.963Z,8.63
2023-01-06T15:41:51.521Z,8.45
2023-01-06T15:44:28.103Z,8.88
2023-01-06T15:46:59.289Z,10.63
2023-01-06T15:49:29.769Z,9.63
2023-01-06T15:52:04.694Z,9.43
2023-01-06T15:54:34.132Z,13.43
2023-01-06T15:57:15.708Z,8.82
2023-01-06T15:59:53.921Z,8.63
2023-01-06T16:02:25.412Z,9.25
2023-01-06T16:04:54.571Z,8.50
2023-01-06T16:07:36.579Z,12.35
2023-01-06T16:10:05.227Z,8.90
2023-01-06T16:12:33.955Z,10.23
2023-01-06T16:15:18.788Z,9.27
2023-01-06T16:17:47.521Z,11.32
2023-01-06T16:20:28.536Z,8.98
2023-01-06T16:22:58.634Z,9.75
2023-01-06T16:25:29.699Z,12.02
2023-01-06T16:27:59.936Z,10.55
2023-01-06T16:30:29.011Z,7.90
2023-01-06T16:33:00.364Z,10.43
2023-01-06T16:35:30.391Z,10.77
2023-01-06T16:38:00.950Z,13.80
2023-01-06T16:40:30.339Z,11.50
2023-01-06T16:43:00.482Z,18.58
2023-01-06T16:45:30.888Z,58.53
2023-01-06T16:48:02.983Z,40.53
2023-01-06T16:50:34.944Z,37.33
2023-01-06T16:53:26.061Z,32.40
2023-01-06T16:55:56.375Z,30.73
2023-01-06T16:58:25.663Z,18.10
2023-01-06T17:00:56.653Z,16.08
2023-01-06T17:03:26.252Z,17.23
2023-01-06T17:05:56.247Z,14.55
2023-01-06T17:08:27.208Z,16.05
2023-01-06T17:10:56.394Z,14.50
2023-01-06T17:13:36.853Z,17.05
2023-01-06T17:16:17.428Z,14.85
2023-01-06T17:18:52.209Z,15.18
2023-01-06T17:21:21.533Z,14.15
2023-01-06T17:23:52.571Z,15.77
2023-01-06T17:26:21.925Z,13.13
2023-01-06T17:28:50.966Z,37.00
2023-01-06T17:31:21.744Z,52.28
2023-01-06T17:33:50.779Z,62.00
2023-01-06T17:36:23.103Z,63.22
2023-01-06T17:38:54.373Z,59.15
2023-01-06T17:41:25.896Z,60.58
2023-01-06T17:44:00.943Z,55.13
2023-01-06T17:46:32.192Z,53.92
2023-01-06T17:49:04.806Z,42.25
2023-01-06T17:51:33.708Z,46.55
2023-01-06T17:54:21.458Z,36.80
2023-01-06T17:56:50.026Z,35.35
2023-01-06T17:59:19.201Z,33.05
2023-01-06T18:01:48.968Z,35.05
2023-01-06T18:04:21.384Z,39.95
2023-01-06T18:07:02.105Z,36.53
2023-01-06T18:09:33.131Z,39.03
2023-01-06T18:12:06.255Z,40.55
2023-01-06T18:14:43.344Z,41.95
2023-01-06T18:17:19.944Z,53.63
2023-01-06T18:22:18.936Z,75.40
2023-01-06T18:24:49.937Z,76.45
2023-01-06T18:27:21.549Z,71.22
2023-01-06T18:29:50.648Z,60.13
2023-01-06T18:32:27.318Z,82.07
2023-01-06T18:34:59.588Z,80.78
2023-01-06T18:37:33.592Z,118.25
2023-01-06T18:40:07.873Z,94.07
2023-01-06T18:42:37.857Z,89.88
2023-01-06T18:45:16.914Z,90.07
2023-01-06T18:47:48.480Z,86.20
2023-01-06T18:50:34.982Z,78.85
2023-01-06T18:53:07.854Z,81.13
2023-01-06T18:55:43.217Z,81.88
2023-01-06T18:58:23.727Z,78.18
2023-01-06T19:00:53.897Z,79.30
2023-01-06T19:03:39.170Z,72.35
2023-01-06T19:06:30.314Z,71.72
2023-01-06T19:08:59.256Z,74.95
2023-01-06T19:11:33.171Z,70.47
2023-01-06T19:14:02.690Z,69.38
2023-01-06T19:16:33.864Z,75.78
2023-01-06T19:19:16.957Z,70.72
2023-01-06T19:21:48.752Z,72.88
2023-01-06T19:24:35.662Z,145.35
2023-01-06T19:27:22.355Z,103.30
2023-01-06T19:29:53.111Z,90.05
2023-01-06T19:32:28.980Z,82.13
2023-01-06T19:34:58.486Z,71.80
2023-01-06T19:37:27.837Z,61.20
2023-01-06T19:39:59.468Z,66.43
2023-01-06T19:42:30.732Z,79.95
2023-01-06T19:45:15.427Z,81.18
2023-01-06T19:47:52.209Z,76.47
2023-01-06T19:50:34.008Z,65.47
2023-01-06T19:53:19.451Z,61.45
2023-01-06T19:55:48.254Z,62.30
2023-01-06T19:58:25.753Z,55.25
2023-01-06T20:00:55.787Z,64.85
2023-01-06T20:03:32.349Z,58.70
2023-01-06T20:06:01.096Z,59.20
2023-01-06T20:08:29.856Z,55.35
2023-01-06T20:11:01.179Z,54.05
2023-01-06T20:13:31.893Z,58.53
2023-01-06T20:16:01.826Z,52.92
2023-01-06T20:18:30.489Z,48.78
2023-01-06T20:20:59.117Z,45.30
2023-01-06T20:23:28.591Z,41.65
2023-01-06T20:25:57.249Z,44.08
2023-01-06T20:28:30.393Z,46.35
2023-01-06T20:31:01.869Z,48.13
2023-01-06T20:33:33.209Z,44.28
2023-01-06T20:36:01.624Z,53.00
2023-01-06T20:38:31.215Z,57.13
2023-01-06T20:41:00.146Z,59.33
2023-01-06T20:43:32.797Z,57.20
2023-01-06T20:46:03.653Z,70.20
2023-01-06T20:48:32.370Z,62.85
2023-01-06T20:51:01.433Z,63.28
2023-01-06T20:53:30.261Z,54.80
2023-01-06T20:55:59.208Z,43.92
2023-01-06T20:58:27.728Z,45.80
2023-01-06T21:00:56.365Z,55.10
2023-01-06T21:03:28.894Z,54.90
2023-01-06T21:05:58.064Z,54.53
2023-01-06T21:08:27.822Z,56.15
2023-01-06T21:10:56.338Z,59.50
2023-01-06T21:13:25.061Z,53.97
2023-01-06T21:15:53.913Z,52.72
2023-01-06T21:18:23.426Z,58.70
2023-01-06T21:20:54.647Z,54.20
2023-01-06T21:23:25.109Z,51.92
2023-01-06T21:25:54.004Z,51.42
2023-01-06T21:28:23.734Z,49.97
2023-01-06T21:30:52.721Z,47.88
2023-01-06T21:33:22.046Z,48.67
2023-01-06T21:35:55.289Z,46.65
2023-01-06T21:38:26.767Z,47.85
2023-01-06T21:41:15.617Z,39.15
2023-01-06T21:43:45.078Z,44.38
2023-01-06T21:46:13.948Z,51.28
2023-01-06T21:48:42.900Z,47.83
2023-01-06T21:51:13.886Z,54.00
2023-01-06T21:53:43.783Z,65.88
2023-01-06T21:56:12.816Z,57.58
2023-01-06T21:58:41.230Z,52.28
2023-01-06T22:01:10.106Z,47.15
2023-01-06T22:03:39.639Z,45.58
2023-01-06T22:06:09.235Z,49.05
2023-01-06T22:08:39.694Z,45.75
2023-01-06T22:11:09.113Z,43.60
2023-01-06T22:13:39.403Z,47.40
2023-01-06T22:16:08.212Z,44.10
2023-01-06T22:18:36.589Z,44.25
2023-01-06T22:21:05.436Z,48.85
2023-01-06T22:23:33.925Z,50.53
2023-01-06T22:26:04.593Z,52.50
2023-01-06T22:28:35.056Z,53.00
2023-01-06T22:31:03.416Z,53.65
2023-01-06T22:33:32.169Z,53.95
2023-01-06T22:36:02.238Z,58.30
2023-01-06T22:38:32.755Z,58.42
2023-01-06T22:41:01.275Z,62.45
2023-01-06T22:43:31.474Z,59.78
2023-01-06T22:45:59.832Z,58.80
2023-01-06T22:48:30.009Z,62.72
2023-01-06T22:50:59.044Z,57.65
2023-01-06T22:53:27.913Z,53.20
2023-01-06T22:56:02.742Z,51.13
2023-01-06T22:58:36.573Z,55.13
2023-01-06T23:01:06.156Z,55.10
2023-01-06T23:03:37.760Z,53.67
2023-01-06T23:06:10.230Z,50.25
2023-01-06T23:08:51.048Z,52.25
2023-01-06T23:11:28.223Z,52.10
2023-01-06T23:13:59.979Z,52.08
2023-01-06T23:16:30.417Z,45.83
2023-01-06T23:18:58.964Z,49.05
2023-01-06T23:21:28.703Z,52.05
2023-01-06T23:23:59.797Z,58.10
2023-01-06T23:26:31.036Z,58.10
2023-01-06T23:29:01.698Z,53.45
2023-01-06T23:31:31.095Z,57.50
2023-01-06T23:34:01.511Z,51.10
2023-01-06T23:36:31.051Z,45.67
2023-01-06T23:39:03.504Z,48.95
2023-01-06T23:41:36.957Z,51.42
2023-01-06T23:44:07.700Z,44.28
2023-01-06T23:46:37.127Z,43.92
2023-01-06T23:49:06.200Z,47.00
2023-01-06T23:51:35.476Z,49.17
2023-01-06T23:54:04.987Z,48.70
2023-01-06T23:56:40.653Z,47.78
2023-01-06T23:59:12.583Z,46.35
